createdAt,value
2022-09-04T00:00:20.234Z,102947.84
2022-09-04T00:03:38.943Z,102943.38
2022-09-04T00:06:33.546Z,102954.84
2022-09-04T00:09:49.590Z,102947.78
2022-09-04T00:12:39.176Z,102953.91
2022-09-04T00:15:37.828Z,102963.63
2022-09-04T00:19:04.602Z,102957.41
2022-09-04T00:21:57.423Z,102958.28
2022-09-04T00:25:22.870Z,102957.41
2022-09-04T00:28:21.064Z,102963.56
2022-09-04T00:31:17.003Z,102951.22
2022-09-04T00:34:11.916Z,102964.44
2022-09-04T00:37:02.945Z,102964.41
2022-09-04T00:40:04.730Z,102967.03
2022-09-04T00:42:57.864Z,102967.88
2022-09-04T00:45:47.934Z,102968.75
2022-09-04T00:48:39.473Z,102972.28
2022-09-04T00:51:44.131Z,102974.03
2022-09-04T00:54:58.690Z,102973.09
2022-09-04T00:58:00.717Z,102967.78
2022-09-04T01:00:48.358Z,102940.53
2022-09-04T01:04:03.103Z,102915.88
2022-09-04T01:07:10.597Z,102965.06
2022-09-04T01:10:30.514Z,102959.72
2022-09-04T01:13:25.728Z,102965.00
2022-09-04T01:16:18.705Z,102951.72
2022-09-04T01:19:17.613Z,102959.63
2022-09-04T01:22:10.395Z,102966.66
2022-09-04T01:25:22.233Z,102966.66
2022-09-04T01:28:35.820Z,102964.84
2022-09-04T01:31:41.384Z,102962.16
2022-09-04T01:35:05.601Z,102964.78
2022-09-04T01:38:15.690Z,102970.91
2022-09-04T01:41:38.610Z,102974.44
2022-09-04T01:44:29.158Z,102973.53
2022-09-04T01:47:36.289Z,102972.59
2022-09-04T01:50:31.186Z,102976.97
2022-09-04T01:53:27.665Z,102978.75
2022-09-04T01:56:43.812Z,102976.94
2022-09-04T02:00:02.813Z,102971.56
2022-09-04T02:03:19.291Z,102977.75
2022-09-04T02:06:46.350Z,102923.22
2022-09-04T02:09:49.016Z,102983.03
2022-09-04T02:12:59.287Z,102984.78
2022-09-04T02:15:52.232Z,102983.00
2022-09-04T02:18:43.290Z,102981.22
2022-09-04T02:21:56.614Z,102986.50
2022-09-04T02:25:30.923Z,102981.19
2022-09-04T02:28:38.720Z,102964.44
2022-09-04T02:31:35.270Z,102991.72
2022-09-04T02:34:30.184Z,102987.31
2022-09-04T02:37:28.552Z,102941.53
2022-09-04T02:40:24.341Z,102995.22
2022-09-04T02:43:33.110Z,102996.06
2022-09-04T02:46:52.180Z,102991.66
2022-09-04T02:50:04.952Z,102993.41
2022-09-04T02:53:21.457Z,102990.75
2022-09-04T02:56:33.372Z,102952.06
2022-09-04T02:59:57.423Z,102997.81
2022-09-04T03:02:53.962Z,103000.47
2022-09-04T03:05:45.407Z,103005.78
2022-09-04T03:08:49.176Z,102992.56
2022-09-04T03:11:46.072Z,103001.31
2022-09-04T03:15:23.592Z,103000.44
2022-09-04T03:18:39.954Z,103003.94
2022-09-04T03:21:32.504Z,103005.72
2022-09-04T03:24:31.332Z,103001.25
2022-09-04T03:27:26.801Z,102999.53
2022-09-04T03:30:28.784Z,103010.06
2022-09-04T03:33:25.532Z,103012.69
2022-09-04T03:36:18.644Z,103016.22
2022-09-04T03:39:19.282Z,103002.13
2022-09-04T03:42:20.625Z,103009.97
2022-09-04T03:45:43.980Z,103022.38
2022-09-04T03:48:54.160Z,103003.75
2022-09-04T03:51:51.177Z,103000.34
2022-09-04T03:54:30.578Z,103020.50
2022-09-04T03:57:16.133Z,103029.38
2022-09-04T03:59:46.224Z,103033.75
2022-09-04T04:02:39.402Z,103031.06
2022-09-04T04:05:21.154Z,103041.69
2022-09-04T04:08:06.718Z,103031.03
2022-09-04T04:11:00.993Z,103044.31
2022-09-04T04:13:46.574Z,103046.09
2022-09-04T04:16:40.707Z,103042.53
2022-09-04T04:19:32.041Z,103041.63
2022-09-04T04:22:20.633Z,103043.41
2022-09-04T04:25:06.518Z,103039.00
2022-09-04T04:28:00.321Z,103047.78
2022-09-04T04:30:54.629Z,103051.31
2022-09-04T04:33:24.496Z,103047.72
2022-09-04T04:36:13.197Z,103055.69
2022-09-04T04:38:59.605Z,103061.84
2022-09-04T04:42:25.404Z,103052.06
2022-09-04T04:45:34.304Z,103057.38
2022-09-04T04:48:24.523Z,103052.91
2022-09-04T04:51:26.754Z,103052.88
2022-09-04T04:54:26.888Z,103059.06
2022-09-04T04:57:19.552Z,103063.44
2022-09-04T05:00:27.839Z,103065.19
2022-09-04T05:03:52.382Z,103065.19
2022-09-04T05:07:02.216Z,103072.25
2022-09-04T05:10:04.626Z,103075.75
2022-09-04T05:13:16.384Z,103072.19
2022-09-04T05:16:09.450Z,103083.69
2022-09-04T05:19:12.622Z,103086.31
2022-09-04T05:22:10.337Z,103086.31
2022-09-04T05:25:09.857Z,103086.28
2022-09-04T05:28:09.024Z,103092.44
2022-09-04T05:31:09.077Z,103084.41
2022-09-04T05:34:15.361Z,103065.19
2022-09-04T05:37:20.069Z,103095.06
2022-09-04T05:40:32.409Z,103089.78
2022-09-04T05:43:56.168Z,103046.75
2022-09-04T05:47:00.089Z,103093.38
2022-09-04T05:50:38.452Z,103086.31
2022-09-04T05:53:44.054Z,103100.50
2022-09-04T05:56:50.589Z,103103.19
2022-09-04T05:59:42.476Z,103106.72
2022-09-04T06:02:52.633Z,103098.75
2022-09-04T06:05:52.571Z,103106.75
2022-09-04T06:08:51.680Z,103101.44
2022-09-04T06:11:56.139Z,103108.47
2022-09-04T06:14:52.811Z,103106.69
2022-09-04T06:17:51.757Z,103105.78
2022-09-04T06:20:49.432Z,103116.38
2022-09-04T06:23:51.293Z,103106.59
2022-09-04T06:26:48.636Z,103124.28
2022-09-04T06:29:49.541Z,103131.41
2022-09-04T06:32:58.466Z,103128.69
2022-09-04T06:36:20.093Z,103119.75
2022-09-04T06:39:28.032Z,103131.22
2022-09-04T06:42:23.421Z,103132.94
2022-09-04T06:45:10.219Z,103132.88
2022-09-04T06:48:25.032Z,103123.97
2022-09-04T06:51:31.622Z,103130.94
2022-09-04T06:54:25.764Z,103137.09
2022-09-04T06:57:22.809Z,103141.47
2022-09-04T07:00:14.707Z,103146.69
2022-09-04T07:03:07.053Z,103139.50
2022-09-04T07:05:40.548Z,103147.41
2022-09-04T07:08:38.582Z,103148.19
2022-09-04T07:11:17.816Z,103137.44
2022-09-04T07:14:07.898Z,103140.91
2022-09-04T07:16:44.676Z,103150.59
2022-09-04T07:19:33.181Z,103151.44
2022-09-04T07:22:23.814Z,103154.00
2022-09-04T07:25:26.386Z,103150.34
2022-09-04T07:28:19.160Z,103144.88
2022-09-04T07:30:52.938Z,103107.94
2022-09-04T07:33:32.777Z,103157.97
2022-09-04T07:36:08.076Z,103159.69
2022-09-04T07:38:50.645Z,103159.59
2022-09-04T07:41:28.870Z,103172.81
2022-09-04T07:44:03.645Z,103160.34
2022-09-04T07:47:00.300Z,103173.50
2022-09-04T07:49:42.437Z,103168.88
2022-09-04T07:52:25.946Z,103178.56
2022-09-04T07:55:14.318Z,103167.81
2022-09-04T07:58:04.047Z,103175.72
2022-09-04T08:00:51.391Z,103178.25
2022-09-04T08:03:38.168Z,103172.84
2022-09-04T08:06:24.644Z,103186.03
2022-09-04T08:09:10.369Z,103178.84
2022-09-04T08:12:16.349Z,103185.84
2022-09-04T08:15:20.065Z,103186.66
2022-09-04T08:18:21.492Z,103182.97
2022-09-04T08:21:25.834Z,103182.00
2022-09-04T08:24:19.349Z,103185.41
2022-09-04T08:27:30.942Z,103188.88
2022-09-04T08:30:28.283Z,103181.66
2022-09-04T08:33:34.006Z,103190.41
2022-09-04T08:36:28.136Z,103190.31
2022-09-04T08:39:37.942Z,103191.97
2022-09-04T08:42:45.112Z,103183.84
2022-09-04T08:45:53.198Z,103182.81
2022-09-04T08:49:01.669Z,103182.66
2022-09-04T08:52:40.229Z,103174.53
2022-09-04T08:55:45.056Z,103184.19
2022-09-04T08:58:56.750Z,103179.63
2022-09-04T09:01:46.510Z,103184.84
2022-09-04T09:04:45.575Z,103179.38
2022-09-04T09:07:47.122Z,103177.50
2022-09-04T09:11:05.036Z,103188.03
2022-09-04T09:14:03.496Z,103179.84
2022-09-04T09:17:05.025Z,103149.75
2022-09-04T09:20:20.064Z,103177.63
2022-09-04T09:23:42.090Z,103178.22
2022-09-04T09:26:49.173Z,103177.00
2022-09-04T09:30:01.766Z,103182.91
2022-09-04T09:33:19.147Z,103173.63
2022-09-04T09:36:40.280Z,103175.84
2022-09-04T09:40:07.728Z,103175.41
2022-09-04T09:42:54.931Z,103179.44
2022-09-04T09:46:10.240Z,103197.72
2022-09-04T09:49:34.841Z,103184.44
2022-09-04T09:52:36.483Z,103177.44
2022-09-04T09:55:36.343Z,103176.75
2022-09-04T09:58:42.079Z,103173.56
2022-09-04T10:01:44.917Z,103171.19
2022-09-04T10:05:14.743Z,103169.13
2022-09-04T10:08:35.373Z,103169.09
2022-09-04T10:11:44.435Z,103169.97
2022-09-04T10:15:08.814Z,103163.16
2022-09-04T10:18:26.315Z,103162.56
2022-09-04T10:21:50.656Z,103163.63
2022-09-04T10:24:50.042Z,103159.97
2022-09-04T10:27:48.073Z,103160.19
2022-09-04T10:30:23.725Z,103165.75
2022-09-04T10:33:11.357Z,103152.50
2022-09-04T10:36:18.644Z,103154.31
2022-09-04T10:39:13.419Z,103161.53
2022-09-04T10:41:53.514Z,103159.88
2022-09-04T10:45:00.575Z,103162.81
2022-09-04T10:48:07.268Z,103170.97
2022-09-04T10:51:12.920Z,103165.75
2022-09-04T10:54:32.771Z,103173.91
2022-09-04T10:57:47.706Z,103174.31
2022-09-04T11:00:42.619Z,103175.66
2022-09-04T11:03:38.480Z,103173.28
2022-09-04T11:06:31.476Z,103159.81
2022-09-04T11:09:36.866Z,103166.56
2022-09-04T11:12:48.885Z,103166.69
2022-09-04T11:15:48.073Z,103172.22
2022-09-04T11:19:16.864Z,103169.50
2022-09-04T11:22:32.907Z,103173.78
2022-09-04T11:25:47.469Z,103172.25
2022-09-04T11:28:53.744Z,103179.19
2022-09-04T11:32:08.116Z,103177.19
2022-09-04T11:35:20.045Z,103176.94
2022-09-04T11:38:20.099Z,103174.38
2022-09-04T11:41:37.197Z,103181.13
2022-09-04T11:44:54.727Z,103178.97
2022-09-04T11:48:06.105Z,103179.75
2022-09-04T11:51:11.409Z,103185.16
2022-09-04T11:54:19.956Z,103183.34
2022-09-04T11:57:09.685Z,103181.59
2022-09-04T12:00:15.007Z,103182.94
2022-09-04T12:03:17.044Z,103178.28
2022-09-04T12:06:29.757Z,103170.09
2022-09-04T12:09:38.391Z,103175.13
2022-09-04T12:13:14.713Z,103174.59
2022-09-04T12:16:39.127Z,103176.59
2022-09-04T12:20:06.083Z,103175.97
2022-09-04T12:23:08.396Z,103170.66
2022-09-04T12:26:11.606Z,103180.53
2022-09-04T12:29:31.420Z,103181.72
2022-09-04T12:32:42.655Z,103182.88
2022-09-04T12:35:47.981Z,103181.28
2022-09-04T12:38:34.930Z,103177.94
2022-09-04T12:41:49.274Z,103189.84
2022-09-04T12:44:55.426Z,103181.78
2022-09-04T12:48:03.440Z,103179.03
2022-09-04T12:51:09.228Z,103189.72
2022-09-04T12:53:58.983Z,103185.28
2022-09-04T12:57:10.580Z,103181.47
2022-09-04T13:00:22.335Z,103177.34
2022-09-04T13:03:44.891Z,103176.91
2022-09-04T13:06:50.398Z,103165.81
2022-09-04T13:09:55.587Z,103174.66
2022-09-04T13:13:21.105Z,103169.28
2022-09-04T13:16:21.912Z,103173.91
2022-09-04T13:19:58.830Z,103178.41
2022-09-04T13:22:51.731Z,103176.59
2022-09-04T13:26:12.531Z,103171.22
2022-09-04T13:29:13.405Z,103165.81
2022-09-04T13:32:23.196Z,103170.50
2022-09-04T13:35:16.081Z,103176.97
2022-09-04T13:38:15.303Z,103173.72
2022-09-04T13:41:34.923Z,103173.09
2022-09-04T13:44:49.771Z,103178.53
2022-09-04T13:47:43.721Z,103181.41
2022-09-04T13:50:45.600Z,103180.09
2022-09-04T13:53:42.605Z,103181.25
2022-09-04T13:56:37.164Z,103182.38
2022-09-04T13:59:29.262Z,103185.19
2022-09-04T14:02:22.188Z,103188.06
2022-09-04T14:05:11.920Z,103191.78
2022-09-04T14:08:02.021Z,103191.09
2022-09-04T14:11:09.135Z,103170.34
2022-09-04T14:14:20.708Z,103194.41
2022-09-04T14:17:08.512Z,103192.09
2022-09-04T14:20:14.335Z,103192.56
2022-09-04T14:23:12.229Z,103192.91
2022-09-04T14:26:30.399Z,103204.16
2022-09-04T14:29:29.710Z,103183.50
2022-09-04T14:33:05.452Z,103204.97
2022-09-04T14:36:03.708Z,103202.63
2022-09-04T14:38:53.702Z,103199.34
2022-09-04T14:42:10.385Z,103172.50
2022-09-04T14:45:08.918Z,103208.00
2022-09-04T14:48:33.572Z,103214.31
2022-09-04T14:51:36.557Z,103219.88
2022-09-04T14:54:24.962Z,103213.72
2022-09-04T14:57:17.532Z,103221.81
2022-09-04T15:00:17.286Z,103214.72
2022-09-04T15:03:22.996Z,103222.03
2022-09-04T15:06:15.409Z,103214.16
2022-09-04T15:09:05.213Z,103214.31
2022-09-04T15:12:14.377Z,103216.16
2022-09-04T15:15:05.777Z,103219.00
2022-09-04T15:17:57.549Z,103226.28
2022-09-04T15:20:49.815Z,103224.66
2022-09-04T15:23:55.876Z,103222.06
2022-09-04T15:26:52.847Z,103193.22
2022-09-04T15:30:05.781Z,103208.09
2022-09-04T15:33:01.839Z,103216.19
2022-09-04T15:35:50.752Z,103217.19
2022-09-04T15:38:44.348Z,103210.03
2022-09-04T15:41:47.032Z,103220.75
2022-09-04T15:44:39.891Z,103225.25
2022-09-04T15:48:05.842Z,103220.84
2022-09-04T15:51:10.617Z,103220.06
2022-09-04T15:54:03.022Z,103223.75
2022-09-04T15:56:56.357Z,103223.84
2022-09-04T15:59:53.322Z,103206.44
2022-09-04T16:03:24.915Z,103229.34
2022-09-04T16:06:18.649Z,103233.97
2022-09-04T16:09:12.197Z,103233.19
2022-09-04T16:12:05.809Z,103190.13
2022-09-04T16:15:02.947Z,103227.13
2022-09-04T16:17:59.029Z,103229.84
2022-09-04T16:21:18.374Z,103236.19
2022-09-04T16:24:05.384Z,103241.63
2022-09-04T16:26:53.036Z,103238.19
2022-09-04T16:29:42.978Z,103244.50
2022-09-04T16:32:38.486Z,103237.44
2022-09-04T16:35:40.012Z,103239.31
2022-09-04T16:38:35.355Z,103234.97
2022-09-04T16:41:33.653Z,103239.53
2022-09-04T16:44:56.336Z,103242.34
2022-09-04T16:47:52.017Z,103246.00
2022-09-04T16:50:44.929Z,103251.47
2022-09-04T16:53:34.688Z,103203.28
2022-09-04T16:56:24.140Z,103252.53
2022-09-04T16:59:15.364Z,103244.59
2022-09-04T17:02:36.372Z,103236.81
2022-09-04T17:05:45.072Z,103201.94
2022-09-04T17:08:44.505Z,103255.66
2022-09-04T17:11:37.814Z,103263.81
2022-09-04T17:14:35.337Z,103260.31
2022-09-04T17:17:40.542Z,103264.88
2022-09-04T17:21:39.719Z,103263.19
2022-09-04T17:29:00.775Z,103261.50
2022-09-04T17:29:16.663Z,103238.69
2022-09-04T17:30:29.252Z,103266.13
2022-09-04T17:39:03.167Z,103260.03
2022-09-04T17:40:38.155Z,103269.97
2022-09-04T17:41:34.775Z,103270.06
2022-09-04T17:42:10.021Z,103272.84
2022-09-04T17:44:46.202Z,103271.19
2022-09-04T17:47:45.676Z,103270.47
2022-09-04T17:50:22.692Z,103272.34
2022-09-04T17:53:00.647Z,103280.47
2022-09-04T17:55:30.724Z,103279.66
2022-09-04T17:58:43.897Z,103285.16
2022-09-04T18:01:59.391Z,103287.97
2022-09-04T18:05:21.198Z,103282.78
2022-09-04T18:08:25.152Z,103292.66
2022-09-04T18:11:17.018Z,103289.34
2022-09-04T18:14:04.008Z,103302.00
2022-09-04T18:17:11.910Z,103302.16
2022-09-04T18:20:08.745Z,103294.28
2022-09-04T18:23:04.649Z,103303.34
2022-09-04T18:26:18.748Z,103294.63
2022-09-04T18:30:11.914Z,103283.31
2022-09-04T18:37:16.257Z,103296.06
2022-09-04T18:37:24.740Z,103305.66
2022-09-04T18:39:08.872Z,103306.88
2022-09-04T18:48:19.124Z,103299.88
2022-09-04T18:50:37.434Z,103315.31
2022-09-04T18:50:38.251Z,103279.91
2022-09-04T18:52:09.290Z,103310.09
2022-09-04T18:55:04.516Z,103315.53
2022-09-04T18:58:06.962Z,103317.41
2022-09-04T19:01:30.871Z,103316.66
2022-09-04T19:04:36.333Z,103326.50
2022-09-04T19:08:05.688Z,103326.63
2022-09-04T19:11:20.485Z,103332.91
2022-09-04T19:14:24.829Z,103325.94
2022-09-04T19:17:46.521Z,103333.16
2022-09-04T19:20:37.496Z,103333.25
2022-09-04T19:23:30.179Z,103334.22
2022-09-04T19:26:26.488Z,103336.97
2022-09-04T19:29:19.635Z,103332.63
2022-09-04T19:32:30.707Z,103344.22
2022-09-04T19:35:23.505Z,103342.53
2022-09-04T19:44:38.671Z,103337.22
2022-09-04T19:45:54.060Z,103341.75
2022-09-04T19:46:26.301Z,103342.69
2022-09-04T19:48:07.463Z,103340.13
2022-09-04T19:53:30.116Z,103341.09
2022-09-04T19:54:22.621Z,103341.16
2022-09-04T19:57:37.293Z,103351.84
2022-09-04T20:00:51.593Z,103351.03
2022-09-04T20:03:42.704Z,103359.97
2022-09-04T20:06:41.318Z,103352.06
2022-09-04T20:09:38.381Z,103362.69
2022-09-04T20:12:50.684Z,103361.88
2022-09-04T20:15:43.511Z,103361.03
2022-09-04T20:18:40.812Z,103354.84
2022-09-04T20:21:32.414Z,103290.50
2022-09-04T20:24:26.851Z,103368.22
2022-09-04T20:27:27.624Z,103373.59
2022-09-04T20:30:18.296Z,103361.22
2022-09-04T20:33:08.430Z,103355.00
2022-09-04T20:36:06.041Z,103333.00
2022-09-04T20:39:16.245Z,103356.84
2022-09-04T20:42:09.510Z,103356.03
2022-09-04T20:48:20.922Z,103366.63
2022-09-04T20:52:52.043Z,103364.00
2022-09-04T20:53:04.785Z,103371.13
2022-09-04T20:55:31.959Z,103369.38
2022-09-04T21:03:11.479Z,103376.50
2022-09-04T21:03:22.692Z,103381.84
2022-09-04T21:06:06.804Z,103373.88
2022-09-04T21:09:00.016Z,103373.91
2022-09-04T21:11:53.854Z,103373.06
2022-09-04T21:14:51.290Z,103377.47
2022-09-04T21:17:46.938Z,103376.59
2022-09-04T21:20:59.373Z,103378.41
2022-09-04T21:24:14.946Z,103377.53
2022-09-04T21:27:18.463Z,103358.09
2022-09-04T21:30:05.345Z,103380.22
2022-09-04T21:33:32.308Z,103383.72
2022-09-04T21:36:28.545Z,103384.63
2022-09-04T21:39:41.656Z,103381.09
2022-09-04T21:42:49.889Z,103388.16
2022-09-04T21:45:42.633Z,103383.75
2022-09-04T21:48:54.979Z,103389.06
2022-09-04T21:52:06.520Z,103389.97
2022-09-04T21:58:04.971Z,103387.31
2022-09-04T22:02:41.125Z,103327.25
2022-09-04T22:02:41.534Z,103386.44
2022-09-04T22:05:00.993Z,103383.78
2022-09-04T22:12:16.872Z,103383.78
2022-09-04T22:13:46.218Z,103386.44
2022-09-04T22:14:35.506Z,103346.69
2022-09-04T22:18:10.221Z,103383.78
2022-09-04T22:21:06.174Z,103387.28
2022-09-04T22:24:14.441Z,103390.84
2022-09-04T22:27:13.257Z,103390.84
2022-09-04T22:30:23.016Z,103386.41
2022-09-04T22:33:48.240Z,103389.03
2022-09-04T22:37:01.145Z,103381.06
2022-09-04T22:40:08.564Z,103382.88
2022-09-04T22:43:21.732Z,103381.97
2022-09-04T22:46:42.357Z,103386.34
2022-09-04T22:49:35.535Z,103383.69
2022-09-04T22:52:50.404Z,103386.34
2022-09-04T22:56:23.117Z,103386.34
2022-09-04T22:59:25.643Z,103388.97
2022-09-04T23:11:12.751Z,103381.00
2022-09-04T23:13:44.860Z,103378.34
2022-09-04T23:14:00.587Z,103388.94
2022-09-04T23:16:48.992Z,103383.63
2022-09-04T23:26:37.225Z,103382.72
2022-09-04T23:26:49.395Z,103395.09
2022-09-04T23:27:08.575Z,103389.78
2022-09-04T23:30:25.646Z,103386.19
2022-09-04T23:33:56.286Z,103391.47
2022-09-04T23:37:14.597Z,103393.22
2022-09-04T23:40:20.103Z,103388.81
2022-09-04T23:43:27.953Z,103396.75
2022-09-04T23:46:47.012Z,103386.13
2022-09-04T23:49:47.369Z,103396.69
2022-09-04T23:52:55.173Z,103395.78
2022-09-04T23:56:01.112Z,103401.06
2022-09-04T23:59:10.095Z,103398.41
